sensor_id;sensor_type;location;lat;lon;timestamp;temperature;humidity
36280;DHT22;22317;47.936;12.742;2023-03-16T00:02:04;1.30;55.80
36280;DHT22;22317;47.936;12.742;2023-03-16T00:04:31;1.30;55.90
36280;DHT22;22317;47.936;12.742;2023-03-16T00:06:57;1.30;56.00
36280;DHT22;22317;47.936;12.742;2023-03-16T00:09:23;1.30;56.00
36280;DHT22;22317;47.936;12.742;2023-03-16T00:11:57;1.30;56.00
36280;DHT22;22317;47.936;12.742;2023-03-16T00:14:23;1.30;56.10
36280;DHT22;22317;47.936;12.742;2023-03-16T00:16:49;1.30;56.10
36280;DHT22;22317;47.936;12.742;2023-03-16T00:19:15;1.30;56.10
36280;DHT22;22317;47.936;12.742;2023-03-16T00:21:41;1.30;56.00
36280;DHT22;22317;47.936;12.742;2023-03-16T00:24:08;1.30;56.10
36280;DHT22;22317;47.936;12.742;2023-03-16T00:26:34;1.30;56.10
36280;DHT22;22317;47.936;12.742;2023-03-16T00:29:00;1.30;56.10
36280;DHT22;22317;47.936;12.742;2023-03-16T00:31:26;1.40;56.20
36280;DHT22;22317;47.936;12.742;2023-03-16T00:33:52;1.40;56.20
36280;DHT22;22317;47.936;12.742;2023-03-16T00:36:19;1.40;56.20
36280;DHT22;22317;47.936;12.742;2023-03-16T00:38:47;1.40;56.10
36280;DHT22;22317;47.936;12.742;2023-03-16T00:41:14;1.50;56.10
36280;DHT22;22317;47.936;12.742;2023-03-16T00:43:41;1.40;55.90
36280;DHT22;22317;47.936;12.742;2023-03-16T00:46:12;1.50;56.10
36280;DHT22;22317;47.936;12.742;2023-03-16T00:48:41;1.40;56.10
36280;DHT22;22317;47.936;12.742;2023-03-16T00:51:10;1.40;56.10
36280;DHT22;22317;47.936;12.742;2023-03-16T00:53:38;1.40;56.10
36280;DHT22;22317;47.936;12.742;2023-03-16T00:56:04;1.40;56.10
36280;DHT22;22317;47.936;12.742;2023-03-16T00:58:31;1.40;56.10
36280;DHT22;22317;47.936;12.742;2023-03-16T01:01:04;1.40;56.10
36280;DHT22;22317;47.936;12.742;2023-03-16T01:03:31;1.40;56.00
36280;DHT22;22317;47.936;12.742;2023-03-16T01:06:01;3.00;56.80
36280;DHT22;22317;47.936;12.742;2023-03-16T01:08:27;1.40;56.00
36280;DHT22;22317;47.936;12.742;2023-03-16T01:10:54;1.30;55.90
36280;DHT22;22317;47.936;12.742;2023-03-16T01:13:20;1.30;55.90
36280;DHT22;22317;47.936;12.742;2023-03-16T01:15:49;1.30;55.90
36280;DHT22;22317;47.936;12.742;2023-03-16T01:18:15;1.20;56.00
36280;DHT22;22317;47.936;12.742;2023-03-16T01:20:43;1.20;56.10
36280;DHT22;22317;47.936;12.742;2023-03-16T01:23:16;1.30;56.30
36280;DHT22;22317;47.936;12.742;2023-03-16T01:25:42;1.20;56.30
36280;DHT22;22317;47.936;12.742;2023-03-16T01:28:09;1.20;56.30
36280;DHT22;22317;47.936;12.742;2023-03-16T01:30:34;1.20;56.80
36280;DHT22;22317;47.936;12.742;2023-03-16T01:33:01;1.20;56.20
36280;DHT22;22317;47.936;12.742;2023-03-16T01:35:27;1.20;56.20
36280;DHT22;22317;47.936;12.742;2023-03-16T01:37:53;1.20;56.20
36280;DHT22;22317;47.936;12.742;2023-03-16T01:40:23;1.10;56.10
36280;DHT22;22317;47.936;12.742;2023-03-16T01:42:59;1.00;56.00
36280;DHT22;22317;47.936;12.742;2023-03-16T01:53:44;0.80;55.60
36280;DHT22;22317;47.936;12.742;2023-03-16T01:56:13;0.80;56.20
36280;DHT22;22317;47.936;12.742;2023-03-16T01:58:42;0.70;56.30
36280;DHT22;22317;47.936;12.742;2023-03-16T02:01:09;0.70;56.50
36280;DHT22;22317;47.936;12.742;2023-03-16T02:03:35;0.70;56.50
36280;DHT22;22317;47.936;12.742;2023-03-16T02:06:11;0.70;56.50
36280;DHT22;22317;47.936;12.742;2023-03-16T02:08:42;0.70;56.60
36280;DHT22;22317;47.936;12.742;2023-03-16T02:11:10;0.70;56.60
36280;DHT22;22317;47.936;12.742;2023-03-16T02:13:44;0.70;56.60
36280;DHT22;22317;47.936;12.742;2023-03-16T02:16:12;0.70;56.60
36280;DHT22;22317;47.936;12.742;2023-03-16T02:18:47;0.70;56.70
36280;DHT22;22317;47.936;12.742;2023-03-16T02:21:34;0.70;56.60
36280;DHT22;22317;47.936;12.742;2023-03-16T02:24:03;0.70;56.70
36280;DHT22;22317;47.936;12.742;2023-03-16T02:32:05;0.70;56.70
36280;DHT22;22317;47.936;12.742;2023-03-16T02:34:31;0.70;56.60
36280;DHT22;22317;47.936;12.742;2023-03-16T02:36:57;-0.70;56.00
36280;DHT22;22317;47.936;12.742;2023-03-16T02:39:25;0.60;56.60
36280;DHT22;22317;47.936;12.742;2023-03-16T02:41:51;0.80;56.60
36280;DHT22;22317;47.936;12.742;2023-03-16T02:44:26;0.60;56.60
36280;DHT22;22317;47.936;12.742;2023-03-16T02:46:56;0.60;56.60
36280;DHT22;22317;47.936;12.742;2023-03-16T02:49:33;0.60;56.60
36280;DHT22;22317;47.936;12.742;2023-03-16T02:52:01;0.60;56.80
36280;DHT22;22317;47.936;12.742;2023-03-16T02:54:27;0.70;56.70
36280;DHT22;22317;47.936;12.742;2023-03-16T02:56:53;0.50;56.60
36280;DHT22;22317;47.936;12.742;2023-03-16T02:59:20;0.60;56.70
36280;DHT22;22317;47.936;12.742;2023-03-16T03:01:46;0.60;56.70
36280;DHT22;22317;47.936;12.742;2023-03-16T03:04:12;0.60;56.70
36280;DHT22;22317;47.936;12.742;2023-03-16T03:06:38;0.70;56.70
36280;DHT22;22317;47.936;12.742;2023-03-16T03:09:06;0.60;56.60
36280;DHT22;22317;47.936;12.742;2023-03-16T03:11:32;0.60;56.60
36280;DHT22;22317;47.936;12.742;2023-03-16T03:13:58;0.50;56.60
36280;DHT22;22317;47.936;12.742;2023-03-16T03:16:26;0.50;56.60
36280;DHT22;22317;47.936;12.742;2023-03-16T03:18:54;0.50;56.60
36280;DHT22;22317;47.936;12.742;2023-03-16T03:21:20;0.50;56.60
36280;DHT22;22317;47.936;12.742;2023-03-16T03:23:46;0.50;56.70
36280;DHT22;22317;47.936;12.742;2023-03-16T03:26:13;0.50;56.80
36280;DHT22;22317;47.936;12.742;2023-03-16T03:28:43;0.50;56.80
36280;DHT22;22317;47.936;12.742;2023-03-16T03:31:16;0.70;57.00
36280;DHT22;22317;47.936;12.742;2023-03-16T03:33:43;0.50;56.90
36280;DHT22;22317;47.936;12.742;2023-03-16T03:36:09;0.50;56.70
36280;DHT22;22317;47.936;12.742;2023-03-16T03:38:36;0.60;56.80
36280;DHT22;22317;47.936;12.742;2023-03-16T03:41:03;0.50;56.80
36280;DHT22;22317;47.936;12.742;2023-03-16T03:43:33;0.60;56.90
36280;DHT22;22317;47.936;12.742;2023-03-16T03:46:00;0.60;56.80
36280;DHT22;22317;47.936;12.742;2023-03-16T03:48:27;0.60;56.80
36280;DHT22;22317;47.936;12.742;2023-03-16T03:50:55;0.60;56.70
36280;DHT22;22317;47.936;12.742;2023-03-16T03:53:42;0.60;56.70
36280;DHT22;22317;47.936;12.742;2023-03-16T03:56:31;0.60;56.60
36280;DHT22;22317;47.936;12.742;2023-03-16T03:58:57;0.60;56.60
36280;DHT22;22317;47.936;12.742;2023-03-16T04:01:43;0.60;56.60
36280;DHT22;22317;47.936;12.742;2023-03-16T04:04:09;0.60;56.60
36280;DHT22;22317;47.936;12.742;2023-03-16T04:06:35;0.60;56.50
36280;DHT22;22317;47.936;12.742;2023-03-16T04:09:01;0.60;56.50
36280;DHT22;22317;47.936;12.742;2023-03-16T04:11:28;2.20;57.30
36280;DHT22;22317;47.936;12.742;2023-03-16T04:13:54;0.60;57.10
36280;DHT22;22317;47.936;12.742;2023-03-16T04:16:20;0.60;56.50
36280;DHT22;22317;47.936;12.742;2023-03-16T04:18:50;0.60;56.50
36280;DHT22;22317;47.936;12.742;2023-03-16T04:21:16;0.50;56.50
36280;DHT22;22317;47.936;12.742;2023-03-16T04:23:44;0.60;56.50
36280;DHT22;22317;47.936;12.742;2023-03-16T04:26:11;0.60;56.60
36280;DHT22;22317;47.936;12.742;2023-03-16T04:28:37;0.60;56.60
36280;DHT22;22317;47.936;12.742;2023-03-16T04:31:08;0.60;56.60
36280;DHT22;22317;47.936;12.742;2023-03-16T04:33:39;0.60;56.60
36280;DHT22;22317;47.936;12.742;2023-03-16T04:36:07;0.60;56.60
36280;DHT22;22317;47.936;12.742;2023-03-16T04:38:36;0.60;56.80
36280;DHT22;22317;47.936;12.742;2023-03-16T04:41:03;0.70;56.70
36280;DHT22;22317;47.936;12.742;2023-03-16T04:43:33;0.60;56.70
36280;DHT22;22317;47.936;12.742;2023-03-16T04:46:05;0.60;56.70
36280;DHT22;22317;47.936;12.742;2023-03-16T04:48:32;0.70;56.70
36280;DHT22;22317;47.936;12.742;2023-03-16T04:50:58;0.60;56.70
36280;DHT22;22317;47.936;12.742;2023-03-16T04:53:28;0.60;56.70
36280;DHT22;22317;47.936;12.742;2023-03-16T04:55:59;0.60;56.80
36280;DHT22;22317;47.936;12.742;2023-03-16T04:58:26;0.60;56.90
36280;DHT22;22317;47.936;12.742;2023-03-16T05:00:54;0.60;57.00
36280;DHT22;22317;47.936;12.742;2023-03-16T05:03:24;0.60;57.00
36280;DHT22;22317;47.936;12.742;2023-03-16T05:05:50;0.60;57.00
36280;DHT22;22317;47.936;12.742;2023-03-16T05:08:16;0.60;57.00
36280;DHT22;22317;47.936;12.742;2023-03-16T05:10:44;0.70;56.90
36280;DHT22;22317;47.936;12.742;2023-03-16T05:13:13;0.60;56.90
36280;DHT22;22317;47.936;12.742;2023-03-16T05:15:38;0.70;57.10
36280;DHT22;22317;47.936;12.742;2023-03-16T05:18:16;0.70;57.10
36280;DHT22;22317;47.936;12.742;2023-03-16T05:20:42;0.70;57.00
36280;DHT22;22317;47.936;12.742;2023-03-16T05:23:08;0.70;57.00
36280;DHT22;22317;47.936;12.742;2023-03-16T05:25:40;0.70;57.00
36280;DHT22;22317;47.936;12.742;2023-03-16T05:28:08;0.70;57.10
36280;DHT22;22317;47.936;12.742;2023-03-16T05:30:43;0.70;57.10
36280;DHT22;22317;47.936;12.742;2023-03-16T05:33:13;0.70;57.10
36280;DHT22;22317;47.936;12.742;2023-03-16T05:35:39;0.70;57.20
36280;DHT22;22317;47.936;12.742;2023-03-16T05:38:08;0.80;57.20
36280;DHT22;22317;47.936;12.742;2023-03-16T05:40:37;0.70;57.20
36280;DHT22;22317;47.936;12.742;2023-03-16T05:43:12;0.80;57.20
36280;DHT22;22317;47.936;12.742;2023-03-16T05:45:44;0.80;57.20
36280;DHT22;22317;47.936;12.742;2023-03-16T05:48:13;0.80;57.10
36280;DHT22;22317;47.936;12.742;2023-03-16T05:50:44;0.70;57.10
36280;DHT22;22317;47.936;12.742;2023-03-16T05:53:11;0.70;57.20
36280;DHT22;22317;47.936;12.742;2023-03-16T05:55:38;0.70;57.80
36280;DHT22;22317;47.936;12.742;2023-03-16T05:58:07;0.70;57.10
36280;DHT22;22317;47.936;12.742;2023-03-16T06:00:35;0.70;57.10
36280;DHT22;22317;47.936;12.742;2023-03-16T06:03:24;0.70;57.20
36280;DHT22;22317;47.936;12.742;2023-03-16T06:05:52;0.70;57.20
36280;DHT22;22317;47.936;12.742;2023-03-16T06:08:25;0.80;57.40
36280;DHT22;22317;47.936;12.742;2023-03-16T06:10:53;0.80;57.40
36280;DHT22;22317;47.936;12.742;2023-03-16T06:13:19;0.90;57.40
36280;DHT22;22317;47.936;12.742;2023-03-16T06:15:46;0.90;57.30
36280;DHT22;22317;47.936;12.742;2023-03-16T06:18:12;1.00;57.30
36280;DHT22;22317;47.936;12.742;2023-03-16T06:20:38;0.90;57.20
36280;DHT22;22317;47.936;12.742;2023-03-16T06:23:04;0.90;57.40
36280;DHT22;22317;47.936;12.742;2023-03-16T06:25:30;1.00;57.70
36280;DHT22;22317;47.936;12.742;2023-03-16T06:27:56;1.00;57.70
36280;DHT22;22317;47.936;12.742;2023-03-16T06:30:23;1.10;57.70
36280;DHT22;22317;47.936;12.742;2023-03-16T06:32:49;1.10;57.70
36280;DHT22;22317;47.936;12.742;2023-03-16T06:35:17;2.50;58.30
36280;DHT22;22317;47.936;12.742;2023-03-16T06:37:51;1.20;57.50
36280;DHT22;22317;47.936;12.742;2023-03-16T06:40:50;1.20;57.50
36280;DHT22;22317;47.936;12.742;2023-03-16T06:43:16;1.20;57.60
36280;DHT22;22317;47.936;12.742;2023-03-16T06:45:43;1.20;57.60
36280;DHT22;22317;47.936;12.742;2023-03-16T06:48:09;1.20;57.60
36280;DHT22;22317;47.936;12.742;2023-03-16T06:50:36;1.30;57.70
36280;DHT22;22317;47.936;12.742;2023-03-16T06:53:02;1.30;57.70
36280;DHT22;22317;47.936;12.742;2023-03-16T06:55:30;1.30;57.70
36280;DHT22;22317;47.936;12.742;2023-03-16T06:57:56;1.40;57.70
36280;DHT22;22317;47.936;12.742;2023-03-16T07:00:23;1.40;57.70
36280;DHT22;22317;47.936;12.742;2023-03-16T07:02:49;1.40;57.70
36280;DHT22;22317;47.936;12.742;2023-03-16T07:05:16;1.60;57.80
36280;DHT22;22317;47.936;12.742;2023-03-16T07:07:44;1.50;57.80
36280;DHT22;22317;47.936;12.742;2023-03-16T07:10:12;1.60;57.90
36280;DHT22;22317;47.936;12.742;2023-03-16T07:12:38;1.60;57.90
36280;DHT22;22317;47.936;12.742;2023-03-16T07:15:05;1.70;58.00
36280;DHT22;22317;47.936;12.742;2023-03-16T07:17:31;1.80;57.90
36280;DHT22;22317;47.936;12.742;2023-03-16T07:19:58;1.90;57.80
36280;DHT22;22317;47.936;12.742;2023-03-16T07:22:24;1.90;57.70
36280;DHT22;22317;47.936;12.742;2023-03-16T07:24:51;2.00;57.70
36280;DHT22;22317;47.936;12.742;2023-03-16T07:27:23;2.00;57.70
36280;DHT22;22317;47.936;12.742;2023-03-16T07:29:50;2.10;57.50
36280;DHT22;22317;47.936;12.742;2023-03-16T07:32:17;2.10;57.50
36280;DHT22;22317;47.936;12.742;2023-03-16T07:34:44;2.20;57.50
36280;DHT22;22317;47.936;12.742;2023-03-16T07:37:10;2.20;57.50
36280;DHT22;22317;47.936;12.742;2023-03-16T07:39:37;2.30;57.50
36280;DHT22;22317;47.936;12.742;2023-03-16T07:42:08;2.30;57.40
36280;DHT22;22317;47.936;12.742;2023-03-16T07:44:46;2.30;57.40
36280;DHT22;22317;47.936;12.742;2023-03-16T07:47:12;2.40;57.40
36280;DHT22;22317;47.936;12.742;2023-03-16T07:49:38;2.40;57.40
36280;DHT22;22317;47.936;12.742;2023-03-16T07:52:06;2.50;57.40
36280;DHT22;22317;47.936;12.742;2023-03-16T07:54:39;2.50;57.30
36280;DHT22;22317;47.936;12.742;2023-03-16T07:57:06;2.50;57.20
36280;DHT22;22317;47.936;12.742;2023-03-16T07:59:39;2.50;57.00
36280;DHT22;22317;47.936;12.742;2023-03-16T08:02:14;2.50;57.10
36280;DHT22;22317;47.936;12.742;2023-03-16T08:04:41;2.50;57.10
36280;DHT22;22317;47.936;12.742;2023-03-16T08:07:08;2.60;57.20
36280;DHT22;22317;47.936;12.742;2023-03-16T08:09:49;2.60;57.20
36280;DHT22;22317;47.936;12.742;2023-03-16T08:12:20;2.60;57.10
36280;DHT22;22317;47.936;12.742;2023-03-16T08:14:47;2.60;57.20
36280;DHT22;22317;47.936;12.742;2023-03-16T08:17:21;2.60;57.20
36280;DHT22;22317;47.936;12.742;2023-03-16T08:19:48;2.60;57.30
36280;DHT22;22317;47.936;12.742;2023-03-16T08:22:14;2.80;57.50
36280;DHT22;22317;47.936;12.742;2023-03-16T08:24:43;2.90;57.60
36280;DHT22;22317;47.936;12.742;2023-03-16T08:27:11;2.90;57.40
36280;DHT22;22317;47.936;12.742;2023-03-16T08:29:40;3.00;57.40
36280;DHT22;22317;47.936;12.742;2023-03-16T08:32:10;3.10;57.40
36280;DHT22;22317;47.936;12.742;2023-03-16T08:34:41;3.30;57.40
36280;DHT22;22317;47.936;12.742;2023-03-16T08:37:08;3.20;57.40
36280;DHT22;22317;47.936;12.742;2023-03-16T08:39:34;3.30;57.50
36280;DHT22;22317;47.936;12.742;2023-03-16T08:42:04;3.40;57.40
36280;DHT22;22317;47.936;12.742;2023-03-16T08:44:38;3.50;57.60
36280;DHT22;22317;47.936;12.742;2023-03-16T08:47:04;3.60;57.50
36280;DHT22;22317;47.936;12.742;2023-03-16T08:49:31;3.80;57.60
36280;DHT22;22317;47.936;12.742;2023-03-16T08:52:03;4.00;57.60
36280;DHT22;22317;47.936;12.742;2023-03-16T08:54:30;4.20;57.50
36280;DHT22;22317;47.936;12.742;2023-03-16T08:56:57;4.50;57.40
36280;DHT22;22317;47.936;12.742;2023-03-16T08:59:22;4.60;57.00
36280;DHT22;22317;47.936;12.742;2023-03-16T09:01:49;4.70;56.60
36280;DHT22;22317;47.936;12.742;2023-03-16T09:04:14;4.80;56.90
36280;DHT22;22317;47.936;12.742;2023-03-16T09:06:40;5.10;57.20
36280;DHT22;22317;47.936;12.742;2023-03-16T09:09:06;5.30;57.10
36280;DHT22;22317;47.936;12.742;2023-03-16T09:11:34;5.60;56.90
36280;DHT22;22317;47.936;12.742;2023-03-16T09:14:00;5.80;56.50
36280;DHT22;22317;47.936;12.742;2023-03-16T09:16:26;5.90;55.90
36280;DHT22;22317;47.936;12.742;2023-03-16T09:18:53;6.00;55.90
36280;DHT22;22317;47.936;12.742;2023-03-16T09:21:20;6.20;55.60
36280;DHT22;22317;47.936;12.742;2023-03-16T09:23:46;6.30;54.90
36280;DHT22;22317;47.936;12.742;2023-03-16T09:26:12;6.40;54.20
36280;DHT22;22317;47.936;12.742;2023-03-16T09:28:40;6.40;54.00
36280;DHT22;22317;47.936;12.742;2023-03-16T09:31:07;6.50;54.10
36280;DHT22;22317;47.936;12.742;2023-03-16T09:33:34;6.70;53.80
36280;DHT22;22317;47.936;12.742;2023-03-16T09:36:00;6.80;53.50
36280;DHT22;22317;47.936;12.742;2023-03-16T09:38:27;6.80;52.80
36280;DHT22;22317;47.936;12.742;2023-03-16T09:40:59;6.80;52.50
36280;DHT22;22317;47.936;12.742;2023-03-16T09:46:26;6.90;51.70
36280;DHT22;22317;47.936;12.742;2023-03-16T09:48:54;7.10;51.80
36280;DHT22;22317;47.936;12.742;2023-03-16T09:54:01;7.30;51.40
36280;DHT22;22317;47.936;12.742;2023-03-16T09:56:46;7.50;51.50
36280;DHT22;22317;47.936;12.742;2023-03-16T09:59:50;7.70;51.00
36280;DHT22;22317;47.936;12.742;2023-03-16T10:05:23;8.00;50.80
36280;DHT22;22317;47.936;12.742;2023-03-16T10:08:09;8.30;50.40
36280;DHT22;22317;47.936;12.742;2023-03-16T10:11:04;8.40;50.00
36280;DHT22;22317;47.936;12.742;2023-03-16T10:13:38;8.60;49.50
36280;DHT22;22317;47.936;12.742;2023-03-16T10:16:13;8.80;49.40
36280;DHT22;22317;47.936;12.742;2023-03-16T10:18:47;8.90;48.50
36280;DHT22;22317;47.936;12.742;2023-03-16T10:21:16;9.00;48.00
36280;DHT22;22317;47.936;12.742;2023-03-16T10:23:47;9.10;47.70
36280;DHT22;22317;47.936;12.742;2023-03-16T10:26:22;9.30;47.40
36280;DHT22;22317;47.936;12.742;2023-03-16T10:28:50;9.40;46.70
36280;DHT22;22317;47.936;12.742;2023-03-16T10:31:20;9.50;46.80
36280;DHT22;22317;47.936;12.742;2023-03-16T10:33:49;9.70;46.50
36280;DHT22;22317;47.936;12.742;2023-03-16T10:39:17;9.90;45.50
36280;DHT22;22317;47.936;12.742;2023-03-16T10:41:46;10.00;44.90
36280;DHT22;22317;47.936;12.742;2023-03-16T10:44:24;10.10;45.50
36280;DHT22;22317;47.936;12.742;2023-03-16T10:47:05;10.30;44.90
36280;DHT22;22317;47.936;12.742;2023-03-16T10:49:38;10.50;44.40
36280;DHT22;22317;47.936;12.742;2023-03-16T10:54:38;10.80;43.70
36280;DHT22;22317;47.936;12.742;2023-03-16T10:59:52;11.00;43.10
36280;DHT22;22317;47.936;12.742;2023-03-16T11:02:24;11.20;43.20
36280;DHT22;22317;47.936;12.742;2023-03-16T11:04:54;11.40;42.70
36280;DHT22;22317;47.936;12.742;2023-03-16T11:07:22;11.50;42.50
36280;DHT22;22317;47.936;12.742;2023-03-16T11:09:52;11.70;42.10
36280;DHT22;22317;47.936;12.742;2023-03-16T11:14:46;12.00;41.60
36280;DHT22;22317;47.936;12.742;2023-03-16T11:17:36;12.20;41.10
36280;DHT22;22317;47.936;12.742;2023-03-16T11:20:08;12.30;40.50
36280;DHT22;22317;47.936;12.742;2023-03-16T11:22:37;12.50;40.70
36280;DHT22;22317;47.936;12.742;2023-03-16T11:25:32;12.60;40.50
36280;DHT22;22317;47.936;12.742;2023-03-16T11:28:13;12.80;39.80
36280;DHT22;22317;47.936;12.742;2023-03-16T11:33:16;13.10;39.80
36280;DHT22;22317;47.936;12.742;2023-03-16T11:40:59;13.50;38.30
36280;DHT22;22317;47.936;12.742;2023-03-16T11:46:29;13.80;38.00
36280;DHT22;22317;47.936;12.742;2023-03-16T11:57:44;14.70;36.20
36280;DHT22;22317;47.936;12.742;2023-03-16T12:00:52;14.80;36.70
36280;DHT22;22317;47.936;12.742;2023-03-16T12:03:53;15.10;35.70
36280;DHT22;22317;47.936;12.742;2023-03-16T12:14:43;15.90;34.60
36280;DHT22;22317;47.936;12.742;2023-03-16T12:17:24;16.30;35.70
36280;DHT22;22317;47.936;12.742;2023-03-16T12:20:02;16.70;34.20
36280;DHT22;22317;47.936;12.742;2023-03-16T12:22:43;17.30;33.70
36280;DHT22;22317;47.936;12.742;2023-03-16T12:25:20;17.80;32.30
36280;DHT22;22317;47.936;12.742;2023-03-16T12:27:51;18.40;31.90
36280;DHT22;22317;47.936;12.742;2023-03-16T12:35:40;20.10;29.90
36280;DHT22;22317;47.936;12.742;2023-03-16T12:41:29;21.30;28.60
36280;DHT22;22317;47.936;12.742;2023-03-16T12:44:25;22.10;27.80
36280;DHT22;22317;47.936;12.742;2023-03-16T12:47:32;22.80;27.00
36280;DHT22;22317;47.936;12.742;2023-03-16T12:50:05;23.40;26.40
36280;DHT22;22317;47.936;12.742;2023-03-16T12:52:43;24.00;26.40
36280;DHT22;22317;47.936;12.742;2023-03-16T12:57:40;25.20;24.90
36280;DHT22;22317;47.936;12.742;2023-03-16T13:00:07;25.80;24.50
36280;DHT22;22317;47.936;12.742;2023-03-16T13:02:36;26.50;23.80
36280;DHT22;22317;47.936;12.742;2023-03-16T13:05:15;27.10;23.30
36280;DHT22;22317;47.936;12.742;2023-03-16T13:07:50;27.70;22.10
36280;DHT22;22317;47.936;12.742;2023-03-16T13:10:18;28.20;21.70
36280;DHT22;22317;47.936;12.742;2023-03-16T13:12:47;28.70;21.60
36280;DHT22;22317;47.936;12.742;2023-03-16T13:17:48;29.70;20.60
36280;DHT22;22317;47.936;12.742;2023-03-16T13:20:28;30.30;20.70
36280;DHT22;22317;47.936;12.742;2023-03-16T13:26:00;31.50;19.20
36280;DHT22;22317;47.936;12.742;2023-03-16T13:28:35;32.10;19.00
36280;DHT22;22317;47.936;12.742;2023-03-16T13:31:01;32.60;18.40
36280;DHT22;22317;47.936;12.742;2023-03-16T13:33:30;33.00;18.60
36280;DHT22;22317;47.936;12.742;2023-03-16T13:35:58;33.50;18.10
36280;DHT22;22317;47.936;12.742;2023-03-16T13:38:26;33.90;17.80
36280;DHT22;22317;47.936;12.742;2023-03-16T13:41:02;34.30;17.40
36280;DHT22;22317;47.936;12.742;2023-03-16T13:43:29;34.80;16.80
36280;DHT22;22317;47.936;12.742;2023-03-16T13:45:58;35.20;17.00
36280;DHT22;22317;47.936;12.742;2023-03-16T13:48:24;35.60;16.70
36280;DHT22;22317;47.936;12.742;2023-03-16T13:50:50;36.00;16.30
36280;DHT22;22317;47.936;12.742;2023-03-16T13:55:51;36.80;16.00
36280;DHT22;22317;47.936;12.742;2023-03-16T13:58:23;37.00;15.50
36280;DHT22;22317;47.936;12.742;2023-03-16T14:00:55;37.40;15.10
36280;DHT22;22317;47.936;12.742;2023-03-16T14:03:22;37.70;15.00
36280;DHT22;22317;47.936;12.742;2023-03-16T14:05:48;38.00;15.10
36280;DHT22;22317;47.936;12.742;2023-03-16T14:08:20;38.40;14.90
36280;DHT22;22317;47.936;12.742;2023-03-16T14:10:46;38.60;14.50
36280;DHT22;22317;47.936;12.742;2023-03-16T14:13:32;38.90;14.50
36280;DHT22;22317;47.936;12.742;2023-03-16T14:18:45;39.50;13.60
36280;DHT22;22317;47.936;12.742;2023-03-16T14:21:25;39.90;13.80
36280;DHT22;22317;47.936;12.742;2023-03-16T14:23:59;40.20;13.20
36280;DHT22;22317;47.936;12.742;2023-03-16T14:26:26;40.40;12.90
36280;DHT22;22317;47.936;12.742;2023-03-16T14:29:20;40.50;13.10
36280;DHT22;22317;47.936;12.742;2023-03-16T14:31:47;40.80;12.70
36280;DHT22;22317;47.936;12.742;2023-03-16T14:37:05;41.30;12.40
36280;DHT22;22317;47.936;12.742;2023-03-16T14:39:31;41.40;12.30
36280;DHT22;22317;47.936;12.742;2023-03-16T14:42:01;41.50;12.50
36280;DHT22;22317;47.936;12.742;2023-03-16T14:44:30;41.70;12.10
36280;DHT22;22317;47.936;12.742;2023-03-16T14:46:57;41.90;12.00
36280;DHT22;22317;47.936;12.742;2023-03-16T14:49:29;42.00;12.50
36280;DHT22;22317;47.936;12.742;2023-03-16T14:54:30;42.30;11.40
36280;DHT22;22317;47.936;12.742;2023-03-16T14:57:01;42.50;11.80
36280;DHT22;22317;47.936;12.742;2023-03-16T14:59:27;42.80;11.30
36280;DHT22;22317;47.936;12.742;2023-03-16T15:01:53;43.00;11.50
36280;DHT22;22317;47.936;12.742;2023-03-16T15:04:31;43.10;11.20
36280;DHT22;22317;47.936;12.742;2023-03-16T15:06:58;43.30;10.80
36280;DHT22;22317;47.936;12.742;2023-03-16T15:09:40;43.40;11.10
36280;DHT22;22317;47.936;12.742;2023-03-16T15:12:19;43.40;10.70
36280;DHT22;22317;47.936;12.742;2023-03-16T15:14:46;43.50;10.50
36280;DHT22;22317;47.936;12.742;2023-03-16T15:17:31;43.70;11.00
36280;DHT22;22317;47.936;12.742;2023-03-16T15:19:57;43.80;10.90
36280;DHT22;22317;47.936;12.742;2023-03-16T15:22:31;43.90;10.70
36280;DHT22;22317;47.936;12.742;2023-03-16T15:24:59;43.80;10.10
36280;DHT22;22317;47.936;12.742;2023-03-16T15:27:34;43.80;10.30
36280;DHT22;22317;47.936;12.742;2023-03-16T15:30:00;43.80;10.10
36280;DHT22;22317;47.936;12.742;2023-03-16T15:32:26;43.90;10.00
36280;DHT22;22317;47.936;12.742;2023-03-16T15:34:52;43.80;9.80
36280;DHT22;22317;47.936;12.742;2023-03-16T15:37:18;43.60;9.70
36280;DHT22;22317;47.936;12.742;2023-03-16T15:39:45;43.20;9.70
36280;DHT22;22317;47.936;12.742;2023-03-16T15:42:14;42.30;9.60
36280;DHT22;22317;47.936;12.742;2023-03-16T15:44:41;41.30;9.80
36280;DHT22;22317;47.936;12.742;2023-03-16T15:47:07;40.00;9.90
36280;DHT22;22317;47.936;12.742;2023-03-16T15:49:34;38.80;10.10
36280;DHT22;22317;47.936;12.742;2023-03-16T15:51:59;37.90;10.40
36280;DHT22;22317;47.936;12.742;2023-03-16T15:54:26;37.60;10.70
36280;DHT22;22317;47.936;12.742;2023-03-16T15:56:53;37.60;10.80
36280;DHT22;22317;47.936;12.742;2023-03-16T15:59:21;37.70;11.00
36280;DHT22;22317;47.936;12.742;2023-03-16T16:01:48;38.00;10.90
36280;DHT22;22317;47.936;12.742;2023-03-16T16:04:17;38.00;10.70
36280;DHT22;22317;47.936;12.742;2023-03-16T16:06:45;37.40;10.40
36280;DHT22;22317;47.936;12.742;2023-03-16T16:09:11;36.60;11.10
36280;DHT22;22317;47.936;12.742;2023-03-16T16:11:37;35.40;10.60
36280;DHT22;22317;47.936;12.742;2023-03-16T16:14:04;34.20;10.80
36280;DHT22;22317;47.936;12.742;2023-03-16T16:16:30;32.90;11.10
36280;DHT22;22317;47.936;12.742;2023-03-16T16:18:58;32.00;11.60
36280;DHT22;22317;47.936;12.742;2023-03-16T16:21:26;31.30;12.10
36280;DHT22;22317;47.936;12.742;2023-03-16T16:23:53;30.70;12.90
36280;DHT22;22317;47.936;12.742;2023-03-16T16:29:04;29.90;12.60
36280;DHT22;22317;47.936;12.742;2023-03-16T16:31:33;29.30;12.60
36280;DHT22;22317;47.936;12.742;2023-03-16T16:33:58;28.30;12.60
36280;DHT22;22317;47.936;12.742;2023-03-16T16:36:24;27.20;12.60
36280;DHT22;22317;47.936;12.742;2023-03-16T16:38:50;26.00;12.90
36280;DHT22;22317;47.936;12.742;2023-03-16T16:41:28;24.80;13.30
36280;DHT22;22317;47.936;12.742;2023-03-16T16:43:55;23.70;14.00
36280;DHT22;22317;47.936;12.742;2023-03-16T16:46:23;22.70;14.30
36280;DHT22;22317;47.936;12.742;2023-03-16T16:48:53;21.70;14.80
36280;DHT22;22317;47.936;12.742;2023-03-16T16:51:27;20.80;15.20
36280;DHT22;22317;47.936;12.742;2023-03-16T16:53:58;20.00;15.80
36280;DHT22;22317;47.936;12.742;2023-03-16T16:56:35;19.20;16.30
36280;DHT22;22317;47.936;12.742;2023-03-16T16:59:13;18.50;17.00
36280;DHT22;22317;47.936;12.742;2023-03-16T17:01:40;17.80;17.40
36280;DHT22;22317;47.936;12.742;2023-03-16T17:04:18;17.20;17.70
36280;DHT22;22317;47.936;12.742;2023-03-16T17:06:45;16.60;18.50
36280;DHT22;22317;47.936;12.742;2023-03-16T17:09:11;16.00;18.90
36280;DHT22;22317;47.936;12.742;2023-03-16T17:11:41;15.50;19.50
36280;DHT22;22317;47.936;12.742;2023-03-16T17:14:08;15.00;20.10